sensor_id;sensor_type;location;lat;lon;timestamp;temperature;humidity
48946;DHT22;34999;50.940;3.998;2023-07-20T00:01:54;16.70;99.90
48946;DHT22;34999;50.940;3.998;2023-07-20T00:04:22;16.70;99.90
48946;DHT22;34999;50.940;3.998;2023-07-20T00:06:50;16.70;99.90
48946;DHT22;34999;50.940;3.998;2023-07-20T00:09:19;16.70;99.90
48946;DHT22;34999;50.940;3.998;2023-07-20T00:11:49;16.60;99.90
48946;DHT22;34999;50.940;3.998;2023-07-20T00:14:19;16.60;99.90
48946;DHT22;34999;50.940;3.998;2023-07-20T00:16:49;16.60;99.90
48946;DHT22;34999;50.940;3.998;2023-07-20T00:19:24;16.50;99.90
48946;DHT22;34999;50.940;3.998;2023-07-20T00:21:53;16.50;99.90
48946;DHT22;34999;50.940;3.998;2023-07-20T00:24:22;16.40;99.90
48946;DHT22;34999;50.940;3.998;2023-07-20T00:26:51;16.40;99.90
48946;DHT22;34999;50.940;3.998;2023-07-20T00:29:19;16.50;99.90
48946;DHT22;34999;50.940;3.998;2023-07-20T00:31:48;16.40;99.90
48946;DHT22;34999;50.940;3.998;2023-07-20T00:34:18;16.50;99.90
48946;DHT22;34999;50.940;3.998;2023-07-20T00:36:47;16.40;99.90
48946;DHT22;34999;50.940;3.998;2023-07-20T00:39:16;16.40;99.90
48946;DHT22;34999;50.940;3.998;2023-07-20T00:41:44;16.40;99.90
48946;DHT22;34999;50.940;3.998;2023-07-20T00:44:12;16.40;99.90
48946;DHT22;34999;50.940;3.998;2023-07-20T00:46:41;16.40;99.90
48946;DHT22;34999;50.940;3.998;2023-07-20T00:49:11;16.40;99.90
48946;DHT22;34999;50.940;3.998;2023-07-20T00:51:39;16.40;99.90
48946;DHT22;34999;50.940;3.998;2023-07-20T00:54:10;16.30;99.90
48946;DHT22;34999;50.940;3.998;2023-07-20T00:56:39;16.30;99.90
48946;DHT22;34999;50.940;3.998;2023-07-20T00:59:07;16.20;99.90
48946;DHT22;34999;50.940;3.998;2023-07-20T01:01:36;16.20;99.90
48946;DHT22;34999;50.940;3.998;2023-07-20T01:04:04;16.10;99.90
48946;DHT22;34999;50.940;3.998;2023-07-20T01:06:38;16.10;99.90
48946;DHT22;34999;50.940;3.998;2023-07-20T01:09:18;16.00;99.90
48946;DHT22;34999;50.940;3.998;2023-07-20T01:11:53;16.00;99.90
48946;DHT22;34999;50.940;3.998;2023-07-20T01:14:23;15.90;99.90
48946;DHT22;34999;50.940;3.998;2023-07-20T01:16:52;15.90;99.90
48946;DHT22;34999;50.940;3.998;2023-07-20T01:19:20;15.80;99.90
48946;DHT22;34999;50.940;3.998;2023-07-20T01:21:53;15.80;99.90
48946;DHT22;34999;50.940;3.998;2023-07-20T01:24:57;15.80;99.90
48946;DHT22;34999;50.940;3.998;2023-07-20T01:30:47;15.90;99.90
48946;DHT22;34999;50.940;3.998;2023-07-20T01:33:20;15.90;99.90
48946;DHT22;34999;50.940;3.998;2023-07-20T01:35:52;15.90;99.90
48946;DHT22;34999;50.940;3.998;2023-07-20T01:38:22;15.90;99.90
48946;DHT22;34999;50.940;3.998;2023-07-20T01:40:51;15.90;99.90
48946;DHT22;34999;50.940;3.998;2023-07-20T01:43:20;16.00;99.90
48946;DHT22;34999;50.940;3.998;2023-07-20T01:45:48;15.90;99.90
48946;DHT22;34999;50.940;3.998;2023-07-20T01:48:16;15.90;99.90
48946;DHT22;34999;50.940;3.998;2023-07-20T01:50:46;15.90;99.90
48946;DHT22;34999;50.940;3.998;2023-07-20T01:53:15;15.90;99.90
48946;DHT22;34999;50.940;3.998;2023-07-20T01:55:43;15.80;99.90
48946;DHT22;34999;50.940;3.998;2023-07-20T01:58:11;15.70;99.90
48946;DHT22;34999;50.940;3.998;2023-07-20T02:00:40;15.70;99.90
48946;DHT22;34999;50.940;3.998;2023-07-20T02:03:08;15.60;99.90
48946;DHT22;34999;50.940;3.998;2023-07-20T02:05:39;15.60;99.90
48946;DHT22;34999;50.940;3.998;2023-07-20T02:08:09;15.50;99.90
48946;DHT22;34999;50.940;3.998;2023-07-20T02:10:37;15.50;99.90
48946;DHT22;34999;50.940;3.998;2023-07-20T02:13:06;15.50;99.90
48946;DHT22;34999;50.940;3.998;2023-07-20T02:15:34;15.40;99.90
48946;DHT22;34999;50.940;3.998;2023-07-20T02:18:02;15.30;99.90
48946;DHT22;34999;50.940;3.998;2023-07-20T02:20:31;15.30;99.90
48946;DHT22;34999;50.940;3.998;2023-07-20T02:23:00;15.20;99.90
48946;DHT22;34999;50.940;3.998;2023-07-20T02:25:29;15.20;99.90
48946;DHT22;34999;50.940;3.998;2023-07-20T02:27:57;15.20;99.90
48946;DHT22;34999;50.940;3.998;2023-07-20T02:30:26;15.10;99.90
48946;DHT22;34999;50.940;3.998;2023-07-20T02:32:56;15.10;99.90
48946;DHT22;34999;50.940;3.998;2023-07-20T02:35:25;15.10;99.90
48946;DHT22;34999;50.940;3.998;2023-07-20T02:37:54;15.10;99.90
48946;DHT22;34999;50.940;3.998;2023-07-20T02:40:22;15.00;99.90
48946;DHT22;34999;50.940;3.998;2023-07-20T02:42:52;15.00;99.90
48946;DHT22;34999;50.940;3.998;2023-07-20T02:45:20;14.90;99.90
48946;DHT22;34999;50.940;3.998;2023-07-20T02:47:49;14.90;99.90
48946;DHT22;34999;50.940;3.998;2023-07-20T02:50:17;14.90;99.90
48946;DHT22;34999;50.940;3.998;2023-07-20T02:52:45;14.90;99.90
48946;DHT22;34999;50.940;3.998;2023-07-20T02:55:14;14.90;99.90
48946;DHT22;34999;50.940;3.998;2023-07-20T02:57:42;14.90;99.90
48946;DHT22;34999;50.940;3.998;2023-07-20T03:00:13;14.90;99.90
48946;DHT22;34999;50.940;3.998;2023-07-20T03:02:43;15.00;99.90
48946;DHT22;34999;50.940;3.998;2023-07-20T03:05:14;15.10;99.90
48946;DHT22;34999;50.940;3.998;2023-07-20T03:07:43;15.10;99.90
48946;DHT22;34999;50.940;3.998;2023-07-20T03:10:12;15.10;99.90
48946;DHT22;34999;50.940;3.998;2023-07-20T03:12:40;15.20;99.90
48946;DHT22;34999;50.940;3.998;2023-07-20T03:15:09;15.20;99.90
48946;DHT22;34999;50.940;3.998;2023-07-20T03:17:39;15.20;99.90
48946;DHT22;34999;50.940;3.998;2023-07-20T03:20:10;15.30;99.90
48946;DHT22;34999;50.940;3.998;2023-07-20T03:22:39;15.30;99.90
48946;DHT22;34999;50.940;3.998;2023-07-20T03:25:08;15.30;99.90
48946;DHT22;34999;50.940;3.998;2023-07-20T03:27:37;15.30;99.90
48946;DHT22;34999;50.940;3.998;2023-07-20T03:30:06;15.30;99.90
48946;DHT22;34999;50.940;3.998;2023-07-20T03:32:36;15.30;99.90
48946;DHT22;34999;50.940;3.998;2023-07-20T03:35:07;15.30;99.90
48946;DHT22;34999;50.940;3.998;2023-07-20T03:37:36;15.30;99.90
48946;DHT22;34999;50.940;3.998;2023-07-20T03:40:06;15.40;99.90
48946;DHT22;34999;50.940;3.998;2023-07-20T03:42:35;15.40;99.90
48946;DHT22;34999;50.940;3.998;2023-07-20T03:45:06;15.40;99.90
48946;DHT22;34999;50.940;3.998;2023-07-20T03:47:34;15.40;99.90
48946;DHT22;34999;50.940;3.998;2023-07-20T03:50:04;15.40;99.90
48946;DHT22;34999;50.940;3.998;2023-07-20T03:52:33;15.50;99.90
48946;DHT22;34999;50.940;3.998;2023-07-20T03:55:02;15.50;99.90
48946;DHT22;34999;50.940;3.998;2023-07-20T03:57:30;15.40;99.90
48946;DHT22;34999;50.940;3.998;2023-07-20T04:00:00;15.50;99.90
48946;DHT22;34999;50.940;3.998;2023-07-20T04:02:29;15.50;99.90
48946;DHT22;34999;50.940;3.998;2023-07-20T04:04:57;15.50;99.90
48946;DHT22;34999;50.940;3.998;2023-07-20T04:07:26;15.50;99.90
48946;DHT22;34999;50.940;3.998;2023-07-20T04:09:55;15.50;99.90
48946;DHT22;34999;50.940;3.998;2023-07-20T04:12:24;15.50;99.90
48946;DHT22;34999;50.940;3.998;2023-07-20T04:14:52;15.50;99.90
48946;DHT22;34999;50.940;3.998;2023-07-20T04:17:20;15.50;99.90
48946;DHT22;34999;50.940;3.998;2023-07-20T04:19:49;15.60;99.90
48946;DHT22;34999;50.940;3.998;2023-07-20T04:22:18;15.60;99.90
48946;DHT22;34999;50.940;3.998;2023-07-20T04:24:46;15.60;99.90
48946;DHT22;34999;50.940;3.998;2023-07-20T04:27:16;15.60;99.90
48946;DHT22;34999;50.940;3.998;2023-07-20T04:29:45;15.60;99.90
48946;DHT22;34999;50.940;3.998;2023-07-20T04:32:13;15.60;99.90
48946;DHT22;34999;50.940;3.998;2023-07-20T04:34:42;15.60;99.90
48946;DHT22;34999;50.940;3.998;2023-07-20T04:37:10;15.60;99.90
48946;DHT22;34999;50.940;3.998;2023-07-20T04:39:38;15.70;99.90
48946;DHT22;34999;50.940;3.998;2023-07-20T04:42:07;15.70;99.90
48946;DHT22;34999;50.940;3.998;2023-07-20T04:44:36;15.70;99.90
48946;DHT22;34999;50.940;3.998;2023-07-20T04:47:05;15.70;99.90
48946;DHT22;34999;50.940;3.998;2023-07-20T04:49:33;15.70;99.90
48946;DHT22;34999;50.940;3.998;2023-07-20T04:52:02;15.80;99.90
48946;DHT22;34999;50.940;3.998;2023-07-20T04:54:30;15.80;99.90
48946;DHT22;34999;50.940;3.998;2023-07-20T04:56:59;15.80;99.90
48946;DHT22;34999;50.940;3.998;2023-07-20T04:59:27;15.80;99.90
48946;DHT22;34999;50.940;3.998;2023-07-20T05:01:56;15.80;99.90
48946;DHT22;34999;50.940;3.998;2023-07-20T05:04:25;15.80;99.90
48946;DHT22;34999;50.940;3.998;2023-07-20T05:07:04;15.90;99.90
48946;DHT22;34999;50.940;3.998;2023-07-20T05:09:34;15.90;99.90
48946;DHT22;34999;50.940;3.998;2023-07-20T05:12:02;15.90;99.90
48946;DHT22;34999;50.940;3.998;2023-07-20T05:14:31;15.90;99.90
48946;DHT22;34999;50.940;3.998;2023-07-20T05:17:01;15.90;99.90
48946;DHT22;34999;50.940;3.998;2023-07-20T05:19:29;16.00;99.90
48946;DHT22;34999;50.940;3.998;2023-07-20T05:21:58;16.00;99.90
48946;DHT22;34999;50.940;3.998;2023-07-20T05:24:26;16.00;99.90
48946;DHT22;34999;50.940;3.998;2023-07-20T05:26:58;16.10;99.90
48946;DHT22;34999;50.940;3.998;2023-07-20T05:29:26;16.10;99.90
48946;DHT22;34999;50.940;3.998;2023-07-20T05:31:54;16.10;99.90
48946;DHT22;34999;50.940;3.998;2023-07-20T05:34:24;16.20;99.90
48946;DHT22;34999;50.940;3.998;2023-07-20T05:36:53;16.30;99.90
48946;DHT22;34999;50.940;3.998;2023-07-20T05:39:21;16.30;99.90
48946;DHT22;34999;50.940;3.998;2023-07-20T05:41:49;16.40;99.90
48946;DHT22;34999;50.940;3.998;2023-07-20T05:44:17;16.40;99.90
48946;DHT22;34999;50.940;3.998;2023-07-20T05:46:46;16.50;99.90
48946;DHT22;34999;50.940;3.998;2023-07-20T05:49:25;16.50;99.90
48946;DHT22;34999;50.940;3.998;2023-07-20T05:51:54;16.50;99.90
48946;DHT22;34999;50.940;3.998;2023-07-20T05:54:24;16.50;99.90
48946;DHT22;34999;50.940;3.998;2023-07-20T05:56:52;16.60;99.90
48946;DHT22;34999;50.940;3.998;2023-07-20T05:59:21;16.70;99.90
48946;DHT22;34999;50.940;3.998;2023-07-20T06:01:50;16.70;99.90
48946;DHT22;34999;50.940;3.998;2023-07-20T06:04:19;16.70;99.90
48946;DHT22;34999;50.940;3.998;2023-07-20T06:06:49;16.80;99.90
48946;DHT22;34999;50.940;3.998;2023-07-20T06:09:17;16.90;99.90
48946;DHT22;34999;50.940;3.998;2023-07-20T06:11:46;17.00;99.90
48946;DHT22;34999;50.940;3.998;2023-07-20T06:14:14;17.10;99.90
48946;DHT22;34999;50.940;3.998;2023-07-20T06:16:43;17.20;99.90
48946;DHT22;34999;50.940;3.998;2023-07-20T06:19:11;17.30;99.90
48946;DHT22;34999;50.940;3.998;2023-07-20T06:21:40;17.40;99.90
48946;DHT22;34999;50.940;3.998;2023-07-20T06:24:10;17.50;99.90
48946;DHT22;34999;50.940;3.998;2023-07-20T06:26:39;17.60;99.90
48946;DHT22;34999;50.940;3.998;2023-07-20T06:29:08;17.70;99.90
48946;DHT22;34999;50.940;3.998;2023-07-20T06:31:37;17.80;99.90
48946;DHT22;34999;50.940;3.998;2023-07-20T06:34:05;17.90;99.90
48946;DHT22;34999;50.940;3.998;2023-07-20T06:36:34;18.00;99.90
48946;DHT22;34999;50.940;3.998;2023-07-20T06:39:03;18.10;99.90
48946;DHT22;34999;50.940;3.998;2023-07-20T06:41:36;18.30;99.90
48946;DHT22;34999;50.940;3.998;2023-07-20T06:44:07;18.30;99.90
48946;DHT22;34999;50.940;3.998;2023-07-20T06:46:36;18.30;99.90
48946;DHT22;34999;50.940;3.998;2023-07-20T06:49:06;18.30;99.90
48946;DHT22;34999;50.940;3.998;2023-07-20T06:51:37;18.40;99.90
48946;DHT22;34999;50.940;3.998;2023-07-20T06:54:06;18.40;99.90
48946;DHT22;34999;50.940;3.998;2023-07-20T06:56:36;18.60;98.10
48946;DHT22;34999;50.940;3.998;2023-07-20T06:59:10;18.70;91.90
48946;DHT22;34999;50.940;3.998;2023-07-20T07:01:39;18.90;85.80
48946;DHT22;34999;50.940;3.998;2023-07-20T07:04:07;19.10;88.70
48946;DHT22;34999;50.940;3.998;2023-07-20T07:06:36;19.30;69.30
48946;DHT22;34999;50.940;3.998;2023-07-20T07:09:05;19.40;62.60
48946;DHT22;34999;50.940;3.998;2023-07-20T07:11:38;19.60;60.20
48946;DHT22;34999;50.940;3.998;2023-07-20T07:14:06;19.90;43.30
48946;DHT22;34999;50.940;3.998;2023-07-20T07:16:35;20.00;34.80
48946;DHT22;34999;50.940;3.998;2023-07-20T07:19:05;20.30;22.50
48946;DHT22;34999;50.940;3.998;2023-07-20T07:21:34;20.70;8.10
48946;DHT22;34999;50.940;3.998;2023-07-20T07:24:04;21.00;1.00
48946;DHT22;34999;50.940;3.998;2023-07-20T07:26:34;21.10;1.00
48946;DHT22;34999;50.940;3.998;2023-07-20T07:29:03;21.10;1.00
48946;DHT22;34999;50.940;3.998;2023-07-20T07:31:34;21.40;1.00
48946;DHT22;34999;50.940;3.998;2023-07-20T07:34:03;22.00;1.00
48946;DHT22;34999;50.940;3.998;2023-07-20T07:36:32;22.30;1.00
48946;DHT22;34999;50.940;3.998;2023-07-20T07:39:01;22.50;1.00
48946;DHT22;34999;50.940;3.998;2023-07-20T07:41:49;22.90;1.00
48946;DHT22;34999;50.940;3.998;2023-07-20T07:44:19;23.30;1.00
48946;DHT22;34999;50.940;3.998;2023-07-20T07:46:48;23.60;1.00
48946;DHT22;34999;50.940;3.998;2023-07-20T07:49:17;24.20;1.00
48946;DHT22;34999;50.940;3.998;2023-07-20T07:51:47;24.60;99.90
48946;DHT22;34999;50.940;3.998;2023-07-20T07:54:16;24.40;1.00
48946;DHT22;34999;50.940;3.998;2023-07-20T07:56:44;24.20;99.90
48946;DHT22;34999;50.940;3.998;2023-07-20T07:59:15;24.20;99.90
48946;DHT22;34999;50.940;3.998;2023-07-20T08:01:45;24.50;99.90
48946;DHT22;34999;50.940;3.998;2023-07-20T08:04:14;24.20;99.90
48946;DHT22;34999;50.940;3.998;2023-07-20T08:06:42;24.30;1.00
48946;DHT22;34999;50.940;3.998;2023-07-20T08:09:11;24.70;99.90
48946;DHT22;34999;50.940;3.998;2023-07-20T08:11:39;24.90;99.90
48946;DHT22;34999;50.940;3.998;2023-07-20T08:14:09;24.60;99.90
48946;DHT22;34999;50.940;3.998;2023-07-20T08:16:37;24.20;99.90
48946;DHT22;34999;50.940;3.998;2023-07-20T08:19:07;23.90;99.90
48946;DHT22;34999;50.940;3.998;2023-07-20T08:21:36;23.80;99.90
48946;DHT22;34999;50.940;3.998;2023-07-20T08:24:05;23.50;99.90
48946;DHT22;34999;50.940;3.998;2023-07-20T08:26:34;23.30;1.00
48946;DHT22;34999;50.940;3.998;2023-07-20T08:29:02;23.20;1.00
48946;DHT22;34999;50.940;3.998;2023-07-20T08:31:31;23.10;1.00
48946;DHT22;34999;50.940;3.998;2023-07-20T08:33:59;22.80;1.00
48946;DHT22;34999;50.940;3.998;2023-07-20T08:36:40;22.70;1.00
48946;DHT22;34999;50.940;3.998;2023-07-20T08:39:08;22.80;1.00
48946;DHT22;34999;50.940;3.998;2023-07-20T08:41:37;22.90;1.00
48946;DHT22;34999;50.940;3.998;2023-07-20T08:44:06;23.60;1.00
48946;DHT22;34999;50.940;3.998;2023-07-20T08:46:35;24.60;70.50
48946;DHT22;34999;50.940;3.998;2023-07-20T08:49:05;25.40;99.90
48946;DHT22;34999;50.940;3.998;2023-07-20T08:51:35;25.90;99.90
48946;DHT22;34999;50.940;3.998;2023-07-20T08:54:06;26.10;95.30
48946;DHT22;34999;50.940;3.998;2023-07-20T08:56:36;26.00;99.90
48946;DHT22;34999;50.940;3.998;2023-07-20T08:59:06;25.60;99.90
48946;DHT22;34999;50.940;3.998;2023-07-20T09:01:37;25.30;1.00
48946;DHT22;34999;50.940;3.998;2023-07-20T09:04:07;25.50;1.00
48946;DHT22;34999;50.940;3.998;2023-07-20T09:06:35;25.50;1.00
48946;DHT22;34999;50.940;3.998;2023-07-20T09:09:06;25.20;99.90
48946;DHT22;34999;50.940;3.998;2023-07-20T09:11:34;24.90;1.00
48946;DHT22;34999;50.940;3.998;2023-07-20T09:14:04;25.00;1.00
48946;DHT22;34999;50.940;3.998;2023-07-20T09:16:34;25.10;1.00
48946;DHT22;34999;50.940;3.998;2023-07-20T09:19:15;24.90;1.00
48946;DHT22;34999;50.940;3.998;2023-07-20T09:21:48;24.50;1.00
48946;DHT22;34999;50.940;3.998;2023-07-20T09:24:20;24.00;99.90
48946;DHT22;34999;50.940;3.998;2023-07-20T09:26:49;23.70;99.90
48946;DHT22;34999;50.940;3.998;2023-07-20T09:29:18;23.90;99.90
48946;DHT22;34999;50.940;3.998;2023-07-20T09:31:59;24.20;1.00
48946;DHT22;34999;50.940;3.998;2023-07-20T09:34:29;24.80;1.00
48946;DHT22;34999;50.940;3.998;2023-07-20T09:37:01;24.80;99.90
48946;DHT22;34999;50.940;3.998;2023-07-20T09:39:32;24.40;1.00
48946;DHT22;34999;50.940;3.998;2023-07-20T09:42:30;24.30;1.00
48946;DHT22;34999;50.940;3.998;2023-07-20T09:45:01;24.20;1.00
48946;DHT22;34999;50.940;3.998;2023-07-20T09:47:29;24.20;1.00
48946;DHT22;34999;50.940;3.998;2023-07-20T09:50:00;24.00;1.00
48946;DHT22;34999;50.940;3.998;2023-07-20T09:52:31;23.70;1.00
48946;DHT22;34999;50.940;3.998;2023-07-20T09:55:05;24.50;1.00
48946;DHT22;34999;50.940;3.998;2023-07-20T09:57:35;25.60;1.00
48946;DHT22;34999;50.940;3.998;2023-07-20T10:00:05;26.00;1.00
48946;DHT22;34999;50.940;3.998;2023-07-20T10:02:44;25.80;1.00
48946;DHT22;34999;50.940;3.998;2023-07-20T10:05:14;25.50;1.00
48946;DHT22;34999;50.940;3.998;2023-07-20T10:07:45;25.20;99.90
48946;DHT22;34999;50.940;3.998;2023-07-20T10:10:17;25.00;99.90
48946;DHT22;34999;50.940;3.998;2023-07-20T10:12:48;25.30;99.90
48946;DHT22;34999;50.940;3.998;2023-07-20T10:15:20;26.10;1.00
48946;DHT22;34999;50.940;3.998;2023-07-20T10:17:57;26.80;1.00
48946;DHT22;34999;50.940;3.998;2023-07-20T10:20:28;28.00;99.90
48946;DHT22;34999;50.940;3.998;2023-07-20T10:22:59;28.90;99.90
48946;DHT22;34999;50.940;3.998;2023-07-20T10:25:29;29.40;1.00
48946;DHT22;34999;50.940;3.998;2023-07-20T10:27:58;29.70;1.60
48946;DHT22;34999;50.940;3.998;2023-07-20T10:30:32;28.90;99.90
48946;DHT22;34999;50.940;3.998;2023-07-20T10:33:02;28.10;99.90
48946;DHT22;34999;50.940;3.998;2023-07-20T10:35:30;27.10;1.00
48946;DHT22;34999;50.940;3.998;2023-07-20T10:38:04;26.90;1.00
48946;DHT22;34999;50.940;3.998;2023-07-20T10:40:36;27.60;99.90
48946;DHT22;34999;50.940;3.998;2023-07-20T10:43:07;28.50;99.90
48946;DHT22;34999;50.940;3.998;2023-07-20T10:45:39;28.60;99.90
48946;DHT22;34999;50.940;3.998;2023-07-20T10:48:14;28.70;99.90
48946;DHT22;34999;50.940;3.998;2023-07-20T10:50:44;28.30;57.20
48946;DHT22;34999;50.940;3.998;2023-07-20T10:53:13;27.60;1.00
48946;DHT22;34999;50.940;3.998;2023-07-20T10:55:43;27.10;1.00
48946;DHT22;34999;50.940;3.998;2023-07-20T10:58:14;26.90;99.90
48946;DHT22;34999;50.940;3.998;2023-07-20T11:00:57;26.50;1.00
48946;DHT22;34999;50.940;3.998;2023-07-20T11:03:30;26.10;1.00
48946;DHT22;34999;50.940;3.998;2023-07-20T11:06:32;26.00;1.00
48946;DHT22;34999;50.940;3.998;2023-07-20T11:09:09;25.80;1.00
48946;DHT22;34999;50.940;3.998;2023-07-20T11:11:41;25.40;1.00
48946;DHT22;34999;50.940;3.998;2023-07-20T11:14:11;25.30;1.00
48946;DHT22;34999;50.940;3.998;2023-07-20T11:16:49;25.70;1.00
48946;DHT22;34999;50.940;3.998;2023-07-20T11:19:19;25.90;99.90
48946;DHT22;34999;50.940;3.998;2023-07-20T11:21:54;26.40;99.90
48946;DHT22;34999;50.940;3.998;2023-07-20T11:24:30;26.90;99.90
48946;DHT22;34999;50.940;3.998;2023-07-20T11:27:01;26.90;59.80
48946;DHT22;34999;50.940;3.998;2023-07-20T11:29:30;27.40;1.00
48946;DHT22;34999;50.940;3.998;2023-07-20T11:32:01;27.30;33.60
48946;DHT22;34999;50.940;3.998;2023-07-20T11:34:32;26.90;99.90
48946;DHT22;34999;50.940;3.998;2023-07-20T11:37:01;26.40;99.90
48946;DHT22;34999;50.940;3.998;2023-07-20T11:39:33;26.10;1.00
48946;DHT22;34999;50.940;3.998;2023-07-20T11:42:05;25.90;99.90
48946;DHT22;34999;50.940;3.998;2023-07-20T11:44:34;25.60;1.00
48946;DHT22;34999;50.940;3.998;2023-07-20T11:47:04;25.30;1.00
48946;DHT22;34999;50.940;3.998;2023-07-20T11:49:35;25.10;1.00
48946;DHT22;34999;50.940;3.998;2023-07-20T11:52:05;24.80;99.90
48946;DHT22;34999;50.940;3.998;2023-07-20T11:54:34;24.60;99.90
48946;DHT22;34999;50.940;3.998;2023-07-20T11:57:05;24.50;99.90
48946;DHT22;34999;50.940;3.998;2023-07-20T11:59:33;24.20;1.00
48946;DHT22;34999;50.940;3.998;2023-07-20T12:02:02;24.10;99.90
48946;DHT22;34999;50.940;3.998;2023-07-20T12:04:31;23.90;1.00
48946;DHT22;34999;50.940;3.998;2023-07-20T12:07:00;23.80;1.00
48946;DHT22;34999;50.940;3.998;2023-07-20T12:09:28;23.70;1.00
48946;DHT22;34999;50.940;3.998;2023-07-20T12:12:19;23.60;1.00
48946;DHT22;34999;50.940;3.998;2023-07-20T12:14:47;23.60;1.00
48946;DHT22;34999;50.940;3.998;2023-07-20T12:17:16;23.60;1.00
48946;DHT22;34999;50.940;3.998;2023-07-20T12:19:45;23.40;1.00
48946;DHT22;34999;50.940;3.998;2023-07-20T12:22:13;23.30;1.00
48946;DHT22;34999;50.940;3.998;2023-07-20T12:24:42;23.10;1.00
48946;DHT22;34999;50.940;3.998;2023-07-20T12:27:13;22.90;18.50
48946;DHT22;34999;50.940;3.998;2023-07-20T12:29:46;22.80;99.90
48946;DHT22;34999;50.940;3.998;2023-07-20T12:32:15;22.70;99.90
48946;DHT22;34999;50.940;3.998;2023-07-20T12:34:43;22.50;1.00
48946;DHT22;34999;50.940;3.998;2023-07-20T12:37:11;22.40;1.00
48946;DHT22;34999;50.940;3.998;2023-07-20T12:39:40;22.20;1.00
48946;DHT22;34999;50.940;3.998;2023-07-20T12:42:12;22.00;1.00
48946;DHT22;34999;50.940;3.998;2023-07-20T12:44:44;21.80;1.00
48946;DHT22;34999;50.940;3.998;2023-07-20T12:47:14;21.30;1.00
48946;DHT22;34999;50.940;3.998;2023-07-20T12:49:42;21.10;1.00
48946;DHT22;34999;50.940;3.998;2023-07-20T12:52:13;20.90;1.00
48946;DHT22;34999;50.940;3.998;2023-07-20T12:54:41;20.80;1.00
48946;DHT22;34999;50.940;3.998;2023-07-20T12:57:10;20.60;1.00
48946;DHT22;34999;50.940;3.998;2023-07-20T12:59:39;20.40;1.00
48946;DHT22;34999;50.940;3.998;2023-07-20T13:02:08;20.40;1.00
48946;DHT22;34999;50.940;3.998;2023-07-20T13:04:37;20.30;1.00
48946;DHT22;34999;50.940;3.998;2023-07-20T13:07:10;20.20;14.10
48946;DHT22;34999;50.940;3.998;2023-07-20T13:09:42;20.20;7.10
48946;DHT22;34999;50.940;3.998;2023-07-20T13:12:10;20.20;25.10
48946;DHT22;34999;50.940;3.998;2023-07-20T13:14:38;20.20;36.80
48946;DHT22;34999;50.940;3.998;2023-07-20T13:17:07;20.20;33.60
48946;DHT22;34999;50.940;3.998;2023-07-20T13:19:38;20.20;13.20
48946;DHT22;34999;50.940;3.998;2023-07-20T13:22:06;20.30;1.00
48946;DHT22;34999;50.940;3.998;2023-07-20T13:24:35;20.40;1.00
48946;DHT22;34999;50.940;3.998;2023-07-20T13:27:04;20.70;1.00
48946;DHT22;34999;50.940;3.998;2023-07-20T13:29:33;20.90;1.00
48946;DHT22;34999;50.940;3.998;2023-07-20T13:32:03;21.30;1.00
48946;DHT22;34999;50.940;3.998;2023-07-20T13:34:34;21.70;1.00
48946;DHT22;34999;50.940;3.998;2023-07-20T13:37:08;22.50;8.40
48946;DHT22;34999;50.940;3.998;2023-07-20T13:39:39;22.90;1.00
48946;DHT22;34999;50.940;3.998;2023-07-20T13:42:08;22.80;1.00
48946;DHT22;34999;50.940;3.998;2023-07-20T13:44:38;22.70;1.00
48946;DHT22;34999;50.940;3.998;2023-07-20T13:47:06;22.70;8.90
48946;DHT22;34999;50.940;3.998;2023-07-20T13:49:38;22.60;1.00
48946;DHT22;34999;50.940;3.998;2023-07-20T13:52:15;22.90;1.00
48946;DHT22;34999;50.940;3.998;2023-07-20T13:54:47;23.50;1.00
48946;DHT22;34999;50.940;3.998;2023-07-20T13:57:20;23.90;99.90
48946;DHT22;34999;50.940;3.998;2023-07-20T13:59:49;24.30;1.00
48946;DHT22;34999;50.940;3.998;2023-07-20T14:02:18;24.40;49.80
48946;DHT22;34999;50.940;3.998;2023-07-20T14:04:49;24.00;1.00
48946;DHT22;34999;50.940;3.998;2023-07-20T14:07:39;23.70;1.00
48946;DHT22;34999;50.940;3.998;2023-07-20T14:10:08;23.30;1.00
48946;DHT22;34999;50.940;3.998;2023-07-20T14:12:39;23.00;1.00
48946;DHT22;34999;50.940;3.998;2023-07-20T14:15:09;23.00;1.00
48946;DHT22;34999;50.940;3.998;2023-07-20T14:17:38;23.00;99.90
48946;DHT22;34999;50.940;3.998;2023-07-20T14:20:07;22.90;99.90
48946;DHT22;34999;50.940;3.998;2023-07-20T14:22:40;22.90;99.90
48946;DHT22;34999;50.940;3.998;2023-07-20T14:25:09;23.00;99.90
48946;DHT22;34999;50.940;3.998;2023-07-20T14:27:37;23.00;99.90
48946;DHT22;34999;50.940;3.998;2023-07-20T14:30:06;22.90;99.90
48946;DHT22;34999;50.940;3.998;2023-07-20T14:32:36;22.80;1.00
48946;DHT22;34999;50.940;3.998;2023-07-20T14:35:06;22.70;99.90
48946;DHT22;34999;50.940;3.998;2023-07-20T14:37:37;22.60;1.00
48946;DHT22;34999;50.940;3.998;2023-07-20T14:40:08;22.50;99.90
48946;DHT22;34999;50.940;3.998;2023-07-20T14:42:36;22.40;99.90
48946;DHT22;34999;50.940;3.998;2023-07-20T14:45:07;22.40;1.00
48946;DHT22;34999;50.940;3.998;2023-07-20T14:47:36;22.30;1.00
48946;DHT22;34999;50.940;3.998;2023-07-20T14:50:06;22.20;1.00
48946;DHT22;34999;50.940;3.998;2023-07-20T14:52:34;21.70;1.00
48946;DHT22;34999;50.940;3.998;2023-07-20T14:55:16;21.00;1.00
48946;DHT22;34999;50.940;3.998;2023-07-20T14:57:45;20.40;1.00
48946;DHT22;34999;50.940;3.998;2023-07-20T15:00:15;19.80;1.00
48946;DHT22;34999;50.940;3.998;2023-07-20T15:02:44;19.30;1.00
48946;DHT22;34999;50.940;3.998;2023-07-20T15:05:14;19.00;9.80
48946;DHT22;34999;50.940;3.998;2023-07-20T15:07:48;18.90;50.70
48946;DHT22;34999;50.940;3.998;2023-07-20T15:10:18;18.80;58.90
48946;DHT22;34999;50.940;3.998;2023-07-20T15:12:46;18.80;35.10
48946;DHT22;34999;50.940;3.998;2023-07-20T15:15:15;18.70;52.40
48946;DHT22;34999;50.940;3.998;2023-07-20T15:17:44;18.60;68.40
48946;DHT22;34999;50.940;3.998;2023-07-20T15:20:13;18.50;82.70
48946;DHT22;34999;50.940;3.998;2023-07-20T15:22:43;18.50;74.40
48946;DHT22;34999;50.940;3.998;2023-07-20T15:25:15;18.40;96.70
48946;DHT22;34999;50.940;3.998;2023-07-20T15:27:45;18.40;93.50
48946;DHT22;34999;50.940;3.998;2023-07-20T15:30:17;18.40;99.90
48946;DHT22;34999;50.940;3.998;2023-07-20T15:32:48;18.50;99.90
48946;DHT22;34999;50.940;3.998;2023-07-20T15:35:20;18.50;99.90
48946;DHT22;34999;50.940;3.998;2023-07-20T15:37:48;18.50;99.90
48946;DHT22;34999;50.940;3.998;2023-07-20T15:40:17;18.50;99.90
48946;DHT22;34999;50.940;3.998;2023-07-20T15:42:47;18.60;99.90
48946;DHT22;34999;50.940;3.998;2023-07-20T15:45:19;18.70;99.90
48946;DHT22;34999;50.940;3.998;2023-07-20T15:47:47;18.70;99.90
48946;DHT22;34999;50.940;3.998;2023-07-20T15:50:16;18.70;99.90
48946;DHT22;34999;50.940;3.998;2023-07-20T15:52:48;18.70;99.90
48946;DHT22;34999;50.940;3.998;2023-07-20T15:55:17;18.70;99.90
48946;DHT22;34999;50.940;3.998;2023-07-20T15:57:47;18.80;99.90